x

Buoy F01 - West Penobscot Bay (44033) Wave Buoy

11:04pm - Sat 20th Dec 2014 All times are EST. -5 hours from GMT.

  • Sig Wave height 1.0ft
  • Peak Period 2s
  • Wind
    11mph, 16mph gusts
  • Sea Temp 43°f
  • 空気 Temp 28°f
  • Sea Pressure 1026.6mb
  • Buoy F01 - West Penobscot Bay
  • Buoy F01 - West Penobscot Bay

More Historic Weather Station data

Upgrade to MSW Pro to gain access to the past 30 days of data for over 8000 Wavebouys and Weather Stations around the globe.

Join Pro

Comparision Forecast

View Surf forecast
   
Sat 12/20 11:04pm 1ft 2s 11 16 mph 1026.6mb 43f 28f
10:04pm 1ft 2s 13 16 mph 1026.8mb 42f 28f
9:04pm 0.7ft  -  16 18 mph 1026.8mb 41f 28f
8:04pm 0.7ft  -  7 9 mph 1026.7mb 41f 28f
7:04pm 1ft 2s 11 16 mph 1027mb 41f 28f
6:04pm 1ft 2s 13 18 mph 1026.7mb 41f 29f
5:04pm 1ft 3s 11 16 mph 1026.6mb 41f 28f
4:04pm 1.3ft 8s 11 13 mph 1026.2mb 41f 28f
3:04pm 1.3ft 3s 13 18 mph 1025.7mb 41f 28f
2:04pm 1.6ft 3s 18 22 mph 1025.2mb 42f 28f
1:04pm 1.3ft 3s 18 22 mph 1025.1mb 42f 27f
12:04pm 1.3ft 3s 16 20 mph 1025.7mb 42f 26f
11:04am 1.3ft 3s 25 29 mph 1025.9mb 42f 26f
10:04am 1.6ft 3s 16 20 mph 1026.1mb 44f 26f
9:04am 1.6ft 3s 16 20 mph 1025.6mb 43f 27f
8:04am 1.6ft 3s 18 25 mph 1024.7mb 44f 28f
7:04am  -   -  18 22 mph 1023.8mb - 29f
6:04am 2ft 3s 18 22 mph 1023.1mb 44f 29f
5:04am 2ft 4s 18 22 mph 1022.4mb 44f 30f
4:04am 2.5ft 3s 20 22 mph 1021.9mb 44f 31f
3:04am 3ft 4s 20 25 mph 1021.3mb 44f 31f
2:04am 3ft 4s 25 34 mph 1020.7mb 44f 31f
1:04am 3.5ft 4s 29 34 mph 1019.6mb 44f 31f
12:04am 2.5ft 3s 29 40 mph 1019.2mb 44f 32f
Fri 12/19 11:04pm  -   -  22 29 mph 1018.7mb - 32f
10:04pm 2ft 3s 20 25 mph 1018.3mb 44f 32f
9:04pm  -   -  16 22 mph 1017.4mb - 32f
8:04pm  -   -  18 20 mph 1016.7mb - 32f
7:04pm  -   -  16 20 mph 1016mb - 33f
6:04pm  -   -  16 18 mph 1014.9mb - 33f
5:04pm  -   -  18 20 mph 1014.1mb - 33f
4:04pm  -   -  16 20 mph 1013.5mb - 33f
3:04pm 1.6ft 3s 16 20 mph 1013mb 44f 33f
1:04pm 1.6ft 3s 16 20 mph 1011.7mb 44f 32f
12:04pm 2ft 3s 18 22 mph 1011.3mb 44f 32f
11:04am 1.6ft 3s 20 25 mph 1011.5mb 44f 32f
10:04am 2.5ft 3s 20 25 mph 1011.5mb 43f 32f
9:04am 2ft 3s 29 36 mph 1010.9mb 43f 32f
8:04am 1.6ft 2s 20 25 mph 1010.4mb 43f 32f
7:04am 1.3ft 3s 20 25 mph 1009.9mb 42f 33f
6:04am 1.3ft 3s 16 18 mph 1008.9mb 41f 32f
5:04am 1ft 2s 13 16 mph 1008.3mb 41f 31f
4:04am 1.3ft 8s 11 13 mph 1007.9mb 42f 32f
3:04am 1ft 2s 13 16 mph 1007.9mb 42f 33f
2:04am 1ft 5s 11 13 mph 1008mb 42f 33f
1:04am 1.3ft 2s 13 16 mph 1007.5mb 42f 33f
12:04am 1ft 5s 13 16 mph 1007.2mb 42f 34f
Thu 12/18 11:04pm 1.3ft 6s 13 16 mph 1006.7mb 42f 34f
10:04pm 1.3ft 5s 18 22 mph 1006.4mb 43f 35f
9:04pm 1.3ft 5s 16 20 mph 1006mb 43f 35f
8:04pm 1.3ft 5s 13 16 mph 1005.9mb 43f 35f
7:04pm 2ft 3s 16 20 mph 1005.8mb 43f 36f
6:04pm 2.5ft 3s 25 34 mph 1005.3mb 43f 37f
5:04pm 2ft 3s 27 34 mph 1004.5mb 43f 37f
4:04pm 2ft 8s 16 22 mph 1003.9mb 42f 37f
3:04pm 1.3ft 5s 16 18 mph 1003.4mb 42f 37f
2:04pm 1.3ft 2s 18 22 mph 1003mb 42f 37f
1:04pm 1.3ft 2s 18 22 mph 1002.6mb 42f 37f
12:04pm 1.6ft 3s 20 25 mph 1002.6mb 42f 37f
11:04am 1.3ft 2s 20 27 mph 1002.5mb 42f 37f
10:04am 1ft  -  18 22 mph 1002.5mb 41f 36f
9:04am 0.7ft  -  11 13 mph 1002.1mb 41f 35f
8:04am 0.7ft  -  11 13 mph 1001.6mb 41f 35f
7:04am 1.6ft 8s 13 16 mph 1001.2mb 41f 35f
6:04am 1.6ft 8s 9 11 mph 1001.2mb 42f 35f
5:04am 1.6ft 8s 11 13 mph 1001.1mb 42f 36f
4:04am 2.5ft 8s 18 22 mph 1001.1mb 42f 37f
3:04am 1.6ft 6s 18 20 mph 1001.1mb 42f 37f
2:04am 2ft 8s 13 18 mph 1001.1mb 42f 36f
1:04am 2.5ft 8s 13 18 mph 1001.1mb 42f 36f
12:04am 3.5ft 8s 18 20 mph 1001mb 42f 37f
Wed 12/17 11:04pm 3.5ft 8s 16 20 mph 1000.9mb 42f 38f
10:04pm 4.5ft 8s 22 27 mph 1001.2mb 45f 38f
9:04pm 4.5ft 8s 25 31 mph 1001.4mb 45f 38f
8:04pm 5ft 8s 27 31 mph 1002mb 44f 39f
7:04pm  -   -  25 29 mph 1002mb - 40f
6:04pm 5ft 8s 22 27 mph 1002mb 43f 41f
5:04pm 5ft 8s 20 22 mph 1002.2mb 43f 43f
4:04pm 5ft 8s 18 22 mph 1002.3mb 45f 44f
3:04pm 5.5ft 8s 18 25 mph 1002.7mb 45f 44f
2:04pm 6ft 8s 22 27 mph 1002.8mb 45f 45f
1:04pm 6ft 6s  -  mph - 45f -
12:04pm 5ft 6s 22 27 mph 1004.6mb 45f 44f
11:04am 4.5ft 6s 25 29 mph 1006.1mb 45f 45f
10:04am 4.5ft 6s 22 29 mph 1007.5mb 45f 45f
9:04am 3.5ft 5s 22 27 mph 1008.8mb 45f 45f
8:04am 2.5ft 5s 20 25 mph 1009.4mb 45f 45f
7:04am 2.5ft 4s 20 25 mph 1010.2mb 44f 45f
6:04am 2ft 5s 16 18 mph 1010.8mb 42f 46f